createdAt,value
2023-05-10T00:01:31.168Z,49.30
2023-05-10T00:03:59.330Z,50.10
2023-05-10T00:06:27.966Z,49.40
2023-05-10T00:09:05.493Z,49.60
2023-05-10T00:11:35.717Z,49.60
2023-05-10T00:17:02.517Z,49.60
2023-05-10T00:19:31.612Z,49.50
2023-05-10T00:22:00.062Z,49.50
2023-05-10T00:24:28.355Z,49.50
2023-05-10T00:26:56.890Z,49.60
2023-05-10T00:29:25.218Z,49.70
2023-05-10T00:31:53.375Z,49.80
2023-05-10T00:34:32.093Z,49.80
2023-05-10T00:37:03.952Z,49.70
2023-05-10T00:39:32.221Z,49.60
2023-05-10T00:42:03.165Z,49.90
2023-05-10T00:44:34.439Z,49.90
2023-05-10T00:47:12.251Z,49.80
2023-05-10T00:49:42.732Z,49.80
2023-05-10T00:52:11.236Z,49.70
2023-05-10T00:54:39.799Z,49.80
2023-05-10T00:57:11.146Z,49.70
2023-05-10T00:59:39.953Z,49.90
2023-05-10T01:02:15.081Z,49.80
2023-05-10T01:04:53.118Z,49.70
2023-05-10T01:07:21.701Z,49.90
2023-05-10T01:09:50.021Z,49.80
2023-05-10T01:12:18.371Z,49.80
2023-05-10T01:14:47.034Z,49.90
2023-05-10T01:17:15.838Z,49.90
2023-05-10T01:19:45.798Z,50.00
2023-05-10T01:22:33.303Z,50.10
2023-05-10T01:25:29.782Z,49.90
2023-05-10T01:28:25.632Z,49.90
2023-05-10T01:31:13.456Z,49.80
2023-05-10T01:33:48.999Z,50.00
2023-05-10T01:36:27.194Z,49.90
2023-05-10T01:39:01.363Z,50.10
2023-05-10T01:44:30.641Z,50.10
2023-05-10T01:47:06.522Z,50.20
2023-05-10T01:49:42.103Z,50.30
2023-05-10T01:52:14.197Z,50.30
2023-05-10T01:54:48.541Z,50.30
2023-05-10T01:57:40.589Z,50.50
2023-05-10T02:00:16.338Z,50.70
2023-05-10T02:02:58.871Z,50.50
2023-05-10T02:05:33.267Z,50.60
2023-05-10T02:08:02.816Z,50.60
2023-05-10T02:10:41.560Z,50.70
2023-05-10T02:13:11.181Z,50.80
2023-05-10T02:15:40.889Z,50.80
2023-05-10T02:18:25.630Z,50.70
2023-05-10T02:20:57.825Z,51.00
2023-05-10T02:23:28.017Z,51.70
2023-05-10T02:25:58.444Z,51.10
2023-05-10T02:28:33.465Z,51.10
2023-05-10T02:31:04.226Z,51.30
2023-05-10T02:33:34.930Z,51.20
2023-05-10T02:36:07.216Z,51.40
2023-05-10T02:38:37.417Z,51.50
2023-05-10T02:41:14.408Z,51.40
2023-05-10T02:43:45.679Z,51.60
2023-05-10T02:46:14.193Z,51.60
2023-05-10T02:48:42.728Z,51.70
2023-05-10T02:51:21.070Z,51.80
2023-05-10T02:54:11.535Z,51.80
2023-05-10T02:56:47.248Z,51.80
2023-05-10T02:59:17.259Z,51.90
2023-05-10T03:01:45.632Z,51.80
2023-05-10T03:04:22.829Z,52.10
2023-05-10T03:07:00.187Z,52.40
2023-05-10T03:12:30.229Z,52.40
2023-05-10T03:15:07.076Z,52.20
2023-05-10T03:17:48.858Z,52.40
2023-05-10T03:20:35.256Z,52.50
2023-05-10T03:23:20.417Z,52.50
2023-05-10T03:25:55.594Z,52.30
2023-05-10T03:28:36.012Z,52.60
2023-05-10T03:31:11.264Z,52.60
2023-05-10T03:34:04.042Z,52.60
2023-05-10T03:39:35.535Z,53.00
2023-05-10T03:42:15.798Z,52.90
2023-05-10T03:45:06.307Z,53.10
2023-05-10T03:47:46.893Z,52.90
2023-05-10T03:50:29.623Z,53.30
2023-05-10T03:53:06.344Z,53.30
2023-05-10T03:55:49.266Z,53.50
2023-05-10T03:58:28.137Z,53.30
2023-05-10T04:01:01.484Z,53.40
2023-05-10T04:03:47.660Z,53.40
2023-05-10T04:06:29.702Z,53.40
2023-05-10T04:09:05.267Z,53.50
2023-05-10T04:11:53.579Z,53.50
2023-05-10T04:14:31.183Z,53.40
2023-05-10T04:16:59.689Z,53.40
2023-05-10T04:19:41.357Z,53.40
2023-05-10T04:22:18.998Z,53.40
2023-05-10T04:24:52.665Z,53.50
2023-05-10T04:27:27.900Z,53.70
2023-05-10T04:30:07.844Z,53.90
2023-05-10T04:32:44.588Z,53.60
2023-05-10T04:35:24.764Z,53.80
2023-05-10T04:38:05.592Z,53.60
2023-05-10T04:43:52.984Z,53.60
2023-05-10T04:46:32.394Z,53.80
2023-05-10T04:49:14.083Z,53.90
2023-05-10T04:58:51.931Z,53.80
2023-05-10T05:02:04.699Z,53.80
2023-05-10T05:04:49.170Z,53.60
2023-05-10T05:07:44.747Z,53.50
2023-05-10T05:10:31.354Z,54.00
2023-05-10T05:13:33.849Z,53.70
2023-05-10T05:16:10.385Z,54.10
2023-05-10T05:22:11.285Z,54.10
2023-05-10T05:24:45.010Z,54.20
2023-05-10T05:27:33.216Z,54.10
2023-05-10T05:30:09.395Z,53.60
2023-05-10T05:32:48.871Z,53.80
2023-05-10T05:35:21.357Z,54.20
2023-05-10T05:37:49.723Z,54.00
2023-05-10T05:40:34.729Z,53.80
2023-05-10T05:43:51.528Z,53.90
2023-05-10T05:46:46.079Z,53.80
2023-05-10T05:50:26.927Z,53.90
2023-05-10T05:56:36.249Z,53.80
2023-05-10T05:59:33.473Z,53.80
2023-05-10T06:02:39.860Z,53.60
2023-05-10T06:05:45.745Z,53.70
2023-05-10T06:08:36.934Z,53.60
2023-05-10T06:11:41.553Z,53.70
2023-05-10T06:14:30.294Z,53.60
2023-05-10T06:21:14.187Z,53.50
2023-05-10T06:24:24.010Z,53.10
2023-05-10T06:27:22.432Z,53.10
2023-05-10T06:30:12.844Z,53.40
2023-05-10T06:35:55.213Z,53.10
2023-05-10T06:38:52.895Z,52.80
2023-05-10T06:41:50.662Z,52.90
2023-05-10T06:45:16.245Z,52.90
2023-05-10T06:48:04.718Z,53.00
2023-05-10T06:50:59.433Z,52.70
2023-05-10T06:53:51.644Z,52.60
2023-05-10T06:56:50.320Z,52.30
2023-05-10T06:59:29.023Z,52.40
2023-05-10T07:02:05.945Z,52.30
2023-05-10T07:04:37.887Z,52.50
2023-05-10T07:07:33.055Z,52.10
2023-05-10T07:10:04.526Z,52.20
2023-05-10T07:12:42.163Z,52.20
2023-05-10T07:15:27.497Z,52.00
2023-05-10T07:18:07.650Z,51.70
2023-05-10T07:20:50.788Z,52.00
2023-05-10T07:23:30.668Z,51.70
2023-05-10T07:26:03.568Z,52.20
2023-05-10T07:29:00.068Z,51.90
2023-05-10T07:32:06.378Z,51.60
2023-05-10T07:37:50.933Z,51.60
2023-05-10T07:40:35.317Z,51.70
2023-05-10T07:43:26.702Z,51.40
2023-05-10T07:46:24.655Z,52.10
2023-05-10T07:49:18.067Z,50.80
2023-05-10T07:51:53.648Z,50.90
2023-05-10T07:54:38.011Z,51.30
2023-05-10T07:57:14.491Z,51.00
2023-05-10T07:59:59.440Z,51.10
2023-05-10T08:02:46.954Z,51.10
2023-05-10T08:05:40.266Z,51.30
2023-05-10T08:08:19.576Z,50.70
2023-05-10T08:10:56.335Z,50.80
2023-05-10T08:13:41.673Z,50.60
2023-05-10T08:16:15.127Z,50.80
2023-05-10T08:19:00.043Z,50.50
2023-05-10T08:21:34.808Z,50.60
2023-05-10T08:24:16.899Z,50.50
2023-05-10T08:26:54.080Z,50.50
2023-05-10T08:29:26.762Z,50.30
2023-05-10T08:32:07.376Z,50.40
2023-05-10T08:34:43.472Z,50.40
2023-05-10T08:37:23.948Z,50.20
2023-05-10T08:40:01.668Z,50.10
2023-05-10T08:42:43.225Z,50.10
2023-05-10T08:45:30.088Z,49.70
2023-05-10T08:48:08.888Z,50.10
2023-05-10T08:50:46.898Z,50.20
2023-05-10T08:53:25.360Z,50.20
2023-05-10T08:56:01.677Z,50.00
2023-05-10T08:58:38.647Z,49.80
2023-05-10T09:01:12.322Z,49.80
2023-05-10T09:03:44.121Z,49.70
2023-05-10T09:06:17.918Z,49.80
2023-05-10T09:09:05.259Z,49.70
2023-05-10T09:11:47.534Z,49.70
2023-05-10T09:14:21.143Z,49.80
2023-05-10T09:17:03.056Z,49.50
2023-05-10T09:19:39.139Z,49.50
2023-05-10T09:22:18.284Z,49.50
2023-05-10T09:25:05.998Z,49.70
2023-05-10T09:28:01.650Z,49.40
2023-05-10T09:30:38.623Z,49.10
2023-05-10T09:33:20.946Z,49.60
2023-05-10T09:35:56.644Z,49.10
2023-05-10T09:38:34.327Z,49.40
2023-05-10T09:41:04.707Z,49.30
2023-05-10T09:43:40.173Z,49.10
2023-05-10T09:46:16.912Z,49.10
2023-05-10T09:49:00.587Z,49.50
2023-05-10T09:51:37.071Z,49.20
2023-05-10T09:54:23.985Z,49.20
2023-05-10T09:57:04.924Z,49.00
2023-05-10T09:59:41.237Z,48.70
2023-05-10T10:02:13.836Z,48.80
2023-05-10T10:04:56.593Z,48.70
2023-05-10T10:07:41.849Z,48.70
2023-05-10T10:10:30.771Z,48.20
2023-05-10T10:13:09.316Z,48.50
2023-05-10T10:15:44.793Z,48.40
2023-05-10T10:21:16.231Z,48.00
2023-05-10T10:23:51.485Z,48.30
2023-05-10T10:26:35.954Z,48.90
2023-05-10T10:29:24.579Z,47.60
2023-05-10T10:32:12.665Z,47.30
2023-05-10T10:35:04.291Z,47.30
2023-05-10T10:38:03.684Z,47.60
2023-05-10T10:40:57.212Z,47.30
2023-05-10T10:43:35.963Z,47.20
2023-05-10T10:46:45.724Z,47.30
2023-05-10T10:49:28.129Z,47.60
2023-05-10T10:52:20.615Z,47.60
2023-05-10T10:55:20.693Z,47.00
2023-05-10T10:58:03.949Z,47.00
2023-05-10T11:00:38.252Z,46.70
2023-05-10T11:03:14.485Z,46.60
2023-05-10T11:05:59.617Z,46.10
2023-05-10T11:08:29.789Z,46.00
2023-05-10T11:11:09.118Z,45.70
2023-05-10T11:13:41.812Z,45.80
2023-05-10T11:16:15.692Z,45.80
2023-05-10T11:19:02.598Z,45.80
2023-05-10T11:21:33.821Z,45.80
2023-05-10T11:24:06.861Z,45.90
2023-05-10T11:26:37.280Z,45.80
2023-05-10T11:29:06.002Z,45.60
2023-05-10T11:31:34.673Z,45.30
2023-05-10T11:34:04.237Z,45.00
2023-05-10T11:36:36.093Z,44.80
2023-05-10T11:39:05.328Z,44.10
2023-05-10T11:41:36.437Z,43.60
2023-05-10T11:44:04.770Z,43.00
2023-05-10T11:46:33.179Z,42.30
2023-05-10T11:49:05.407Z,42.10
2023-05-10T11:51:37.084Z,41.60
2023-05-10T11:54:09.429Z,41.10
2023-05-10T11:56:38.482Z,40.30
2023-05-10T11:59:06.820Z,40.40
2023-05-10T12:01:35.408Z,40.60
2023-05-10T12:04:05.640Z,40.80
2023-05-10T12:06:39.764Z,40.20
2023-05-10T12:09:08.841Z,39.80
2023-05-10T12:11:42.790Z,39.70
2023-05-10T12:14:12.424Z,38.60
2023-05-10T12:16:40.776Z,38.60
2023-05-10T12:19:12.763Z,38.00
2023-05-10T12:21:42.424Z,37.10
2023-05-10T12:24:11.617Z,37.20
2023-05-10T12:26:47.533Z,36.90
2023-05-10T12:29:21.644Z,37.00
2023-05-10T12:31:57.841Z,36.80
2023-05-10T12:34:33.618Z,36.40
2023-05-10T12:37:19.196Z,36.30
2023-05-10T12:39:48.539Z,36.50
2023-05-10T12:42:29.842Z,36.40
2023-05-10T12:44:58.958Z,36.10
2023-05-10T12:47:30.744Z,35.80
2023-05-10T12:50:01.335Z,35.70
2023-05-10T12:52:29.763Z,35.30
2023-05-10T12:55:01.997Z,35.30
2023-05-10T12:57:30.792Z,35.50
2023-05-10T12:59:59.136Z,35.50
2023-05-10T13:02:42.302Z,35.80
2023-05-10T13:05:15.201Z,36.00
2023-05-10T13:07:48.157Z,36.40
2023-05-10T13:10:16.903Z,36.40
2023-05-10T13:15:29.074Z,36.40
2023-05-10T13:18:06.705Z,36.70
2023-05-10T13:20:38.896Z,36.50
2023-05-10T13:23:19.498Z,36.30
2023-05-10T13:25:48.721Z,36.50
2023-05-10T13:28:27.993Z,36.40
2023-05-10T13:30:56.242Z,36.40
2023-05-10T13:33:24.795Z,36.70
2023-05-10T13:35:58.440Z,36.70
2023-05-10T13:38:27.228Z,36.50
2023-05-10T13:40:55.682Z,36.90
2023-05-10T13:43:23.847Z,37.30
2023-05-10T13:45:53.349Z,37.10
2023-05-10T13:48:22.076Z,37.20
2023-05-10T13:50:50.746Z,37.00
2023-05-10T13:53:20.768Z,37.10
2023-05-10T13:55:48.958Z,37.20
2023-05-10T13:58:17.167Z,37.30
2023-05-10T14:00:45.521Z,37.30
2023-05-10T14:03:16.215Z,37.40
2023-05-10T14:05:45.928Z,37.30
2023-05-10T14:08:15.731Z,37.30
2023-05-10T14:10:45.927Z,37.00
2023-05-10T14:13:14.321Z,37.70
2023-05-10T14:15:42.754Z,37.50
2023-05-10T14:18:11.051Z,37.40
2023-05-10T14:20:39.347Z,37.40
2023-05-10T14:23:08.741Z,37.10
2023-05-10T14:25:39.037Z,38.10
2023-05-10T14:28:12.744Z,39.50
2023-05-10T14:30:41.084Z,40.40
2023-05-10T14:33:09.904Z,40.70
2023-05-10T14:35:38.786Z,40.90
2023-05-10T14:38:07.453Z,41.30
2023-05-10T14:40:35.936Z,41.70
2023-05-10T14:43:04.217Z,42.00
2023-05-10T14:45:34.520Z,42.30
2023-05-10T14:48:05.662Z,42.50
2023-05-10T14:50:36.661Z,43.00
2023-05-10T14:53:05.724Z,43.60
2023-05-10T14:55:35.679Z,44.00
2023-05-10T14:58:07.600Z,44.40
2023-05-10T15:00:40.249Z,44.60
2023-05-10T15:03:09.516Z,45.50
2023-05-10T15:05:39.294Z,46.10
2023-05-10T15:08:07.803Z,46.70
2023-05-10T15:10:36.081Z,47.10
2023-05-10T15:13:05.862Z,47.60
2023-05-10T15:15:34.423Z,47.80
2023-05-10T15:18:05.917Z,48.00
2023-05-10T15:20:34.461Z,48.80
2023-05-10T15:23:06.143Z,48.70
2023-05-10T15:25:35.801Z,49.10
2023-05-10T15:28:10.004Z,48.90
2023-05-10T15:30:40.229Z,50.00
2023-05-10T15:33:17.081Z,50.00
2023-05-10T15:35:48.799Z,50.10
2023-05-10T15:38:20.452Z,50.10
2023-05-10T15:40:49.588Z,50.60
2023-05-10T15:43:20.400Z,50.90
2023-05-10T15:45:53.281Z,51.00
2023-05-10T15:48:23.123Z,51.40
2023-05-10T15:50:51.368Z,51.20
2023-05-10T15:53:19.611Z,51.30
2023-05-10T15:55:47.915Z,52.10
2023-05-10T15:58:16.857Z,51.90
2023-05-10T16:00:45.778Z,51.80
2023-05-10T16:03:14.531Z,51.90
2023-05-10T16:05:44.314Z,52.00
2023-05-10T16:08:12.665Z,52.40
2023-05-10T16:10:41.625Z,52.40
2023-05-10T16:13:10.749Z,52.90
2023-05-10T16:15:39.325Z,53.20
2023-05-10T16:18:07.803Z,53.30
2023-05-10T16:20:36.778Z,53.50
2023-05-10T16:23:08.200Z,53.50
2023-05-10T16:25:37.026Z,53.60
2023-05-10T16:28:05.414Z,53.90
2023-05-10T16:30:33.880Z,54.00
2023-05-10T16:33:02.651Z,54.10
2023-05-10T16:35:31.258Z,54.20
2023-05-10T16:37:59.570Z,54.40
2023-05-10T16:40:29.822Z,54.10
2023-05-10T16:42:58.337Z,54.30
2023-05-10T16:45:27.047Z,54.40
2023-05-10T16:47:55.846Z,54.40
2023-05-10T16:50:24.223Z,54.40
2023-05-10T16:52:52.407Z,54.40
2023-05-10T16:55:20.945Z,54.60
2023-05-10T16:57:51.539Z,54.60
2023-05-10T17:00:20.939Z,54.60
2023-05-10T17:02:49.310Z,54.60
2023-05-10T17:05:20.120Z,54.60
2023-05-10T17:07:48.293Z,54.50
2023-05-10T17:10:16.697Z,54.60
2023-05-10T17:12:46.072Z,54.70
2023-05-10T17:15:21.472Z,54.90
2023-05-10T17:17:49.915Z,55.10
2023-05-10T17:20:18.828Z,55.10
2023-05-10T17:22:49.703Z,55.20
2023-05-10T17:25:19.097Z,55.30
2023-05-10T17:27:51.085Z,55.30
2023-05-10T17:30:26.406Z,55.30
2023-05-10T17:32:55.285Z,55.30
2023-05-10T17:35:24.111Z,55.30
2023-05-10T17:37:52.849Z,55.50
2023-05-10T17:40:22.166Z,55.80
2023-05-10T17:42:54.160Z,56.10
2023-05-10T17:45:24.638Z,56.40
2023-05-10T17:47:53.118Z,56.70
2023-05-10T17:50:22.046Z,57.10
2023-05-10T17:52:50.453Z,57.50
2023-05-10T17:55:19.256Z,57.80
2023-05-10T17:57:49.427Z,58.00
2023-05-10T18:00:19.333Z,58.10
2023-05-10T18:02:49.147Z,58.30
2023-05-10T18:05:18.274Z,58.50
2023-05-10T18:07:46.991Z,58.70
2023-05-10T18:10:15.324Z,58.80
2023-05-10T18:12:43.686Z,58.90
2023-05-10T18:15:12.809Z,58.90
2023-05-10T18:17:41.224Z,58.90
2023-05-10T18:20:12.086Z,59.10
2023-05-10T18:22:40.420Z,59.10
2023-05-10T18:25:11.673Z,59.10
2023-05-10T18:27:44.015Z,59.20
2023-05-10T18:30:13.720Z,59.10
2023-05-10T18:32:47.013Z,59.40
2023-05-10T18:35:17.580Z,59.70
2023-05-10T18:37:46.898Z,59.50
2023-05-10T18:40:15.549Z,59.80
2023-05-10T18:42:44.304Z,59.70
2023-05-10T18:45:15.263Z,59.70
2023-05-10T18:47:44.194Z,59.70
2023-05-10T18:50:13.471Z,59.80
2023-05-10T18:52:46.873Z,60.00
2023-05-10T18:55:16.108Z,60.40
2023-05-10T18:57:45.860Z,59.80
2023-05-10T19:00:15.502Z,59.60
2023-05-10T19:02:45.770Z,59.90
2023-05-10T19:05:15.949Z,60.30
2023-05-10T19:07:46.341Z,60.00
2023-05-10T19:10:15.419Z,60.20
2023-05-10T19:12:44.070Z,60.30
2023-05-10T19:15:12.783Z,60.20
2023-05-10T19:17:42.166Z,60.20
2023-05-10T19:20:12.695Z,60.70
2023-05-10T19:22:54.151Z,60.50
2023-05-10T19:25:34.477Z,60.90
2023-05-10T19:28:03.026Z,61.10
2023-05-10T19:30:32.576Z,60.90
2023-05-10T19:33:06.363Z,61.00
2023-05-10T19:35:38.010Z,61.20
2023-05-10T19:38:07.406Z,61.50
2023-05-10T19:40:40.148Z,61.40
2023-05-10T19:43:09.827Z,61.60
2023-05-10T19:45:40.053Z,61.80
2023-05-10T19:48:11.996Z,61.70
2023-05-10T19:50:40.767Z,61.80
2023-05-10T19:53:09.118Z,62.20
2023-05-10T19:55:42.186Z,62.20
2023-05-10T19:58:10.955Z,62.30
2023-05-10T20:00:39.521Z,62.60
2023-05-10T20:03:09.288Z,62.50
2023-05-10T20:05:38.378Z,63.20
2023-05-10T20:08:07.207Z,62.60
2023-05-10T20:10:36.412Z,62.90
2023-05-10T20:13:06.393Z,62.80
2023-05-10T20:15:35.004Z,62.90
2023-05-10T20:18:05.008Z,63.00
2023-05-10T20:20:33.342Z,63.30
2023-05-10T20:23:02.035Z,63.20
2023-05-10T20:25:30.770Z,63.40
2023-05-10T20:27:59.629Z,63.80
2023-05-10T20:30:29.468Z,63.90
2023-05-10T20:32:58.498Z,64.00
2023-05-10T20:35:26.829Z,64.00
2023-05-10T20:37:54.966Z,64.30
2023-05-10T20:40:23.607Z,64.20
2023-05-10T20:42:54.143Z,64.50
2023-05-10T20:45:23.016Z,64.60
2023-05-10T20:47:53.734Z,64.80
2023-05-10T20:50:22.226Z,64.90
2023-05-10T20:52:52.349Z,64.90
2023-05-10T20:55:21.243Z,65.10
2023-05-10T20:57:49.789Z,65.10
2023-05-10T21:00:18.718Z,65.10
2023-05-10T21:02:47.486Z,65.20
2023-05-10T21:05:19.886Z,65.20
2023-05-10T21:07:49.450Z,65.50
2023-05-10T21:10:18.159Z,65.70
2023-05-10T21:12:46.845Z,65.80
2023-05-10T21:15:15.099Z,66.10
2023-05-10T21:17:43.670Z,66.10
2023-05-10T21:20:13.463Z,66.20
2023-05-10T21:22:43.437Z,66.00
2023-05-10T21:25:12.177Z,66.40
2023-05-10T21:27:40.490Z,66.60
2023-05-10T21:30:10.654Z,66.70
2023-05-10T21:32:39.519Z,66.60
2023-05-10T21:35:09.372Z,67.30
2023-05-10T21:37:37.728Z,66.80
2023-05-10T21:40:09.015Z,67.20
2023-05-10T21:42:37.470Z,67.20
2023-05-10T21:45:07.578Z,67.60
2023-05-10T21:47:36.323Z,67.30
2023-05-10T21:50:04.763Z,67.70
2023-05-10T21:52:33.163Z,67.70
2023-05-10T21:55:01.755Z,67.70
2023-05-10T21:57:33.130Z,67.90
2023-05-10T22:00:01.737Z,67.90
2023-05-10T22:02:33.018Z,68.00
2023-05-10T22:05:02.763Z,68.20
2023-05-10T22:07:32.192Z,68.00
2023-05-10T22:10:00.910Z,68.40
2023-05-10T22:12:29.467Z,68.40
2023-05-10T22:15:09.425Z,68.00
2023-05-10T22:17:42.707Z,68.50
2023-05-10T22:20:12.877Z,68.60
2023-05-10T22:22:50.801Z,68.90
2023-05-10T22:25:20.257Z,68.50
2023-05-10T22:27:48.832Z,69.20
2023-05-10T22:30:19.933Z,68.90
2023-05-10T22:32:48.945Z,69.10
2023-05-10T22:35:17.177Z,69.20
2023-05-10T22:37:46.452Z,69.20
2023-05-10T22:40:15.022Z,69.20
2023-05-10T22:42:43.367Z,69.50
2023-05-10T22:45:12.653Z,69.40
2023-05-10T22:47:42.487Z,69.20
2023-05-10T22:50:11.278Z,69.50
2023-05-10T22:52:40.037Z,69.30
2023-05-10T22:55:09.321Z,69.40
2023-05-10T22:57:38.132Z,69.60
2023-05-10T23:00:10.771Z,69.90
2023-05-10T23:02:39.238Z,69.90
2023-05-10T23:05:10.478Z,70.10
2023-05-10T23:07:38.763Z,70.00
2023-05-10T23:10:07.864Z,70.20
2023-05-10T23:12:36.452Z,70.20
2023-05-10T23:15:05.140Z,70.30
2023-05-10T23:17:33.531Z,70.50
2023-05-10T23:20:01.832Z,70.60
2023-05-10T23:22:31.877Z,70.60
2023-05-10T23:25:00.242Z,70.80
2023-05-10T23:27:30.333Z,70.90
2023-05-10T23:29:58.728Z,70.80
2023-05-10T23:32:27.310Z,70.90
2023-05-10T23:34:55.613Z,71.00
2023-05-10T23:37:24.510Z,71.20
2023-05-10T23:39:54.595Z,71.20
2023-05-10T23:42:23.126Z,71.40
2023-05-10T23:44:52.443Z,71.30
2023-05-10T23:47:20.716Z,71.20
2023-05-10T23:49:50.740Z,72.00
2023-05-10T23:52:22.789Z,71.10
2023-05-10T23:54:51.070Z,71.30
2023-05-10T23:57:20.884Z,71.30
2023-05-10T23:59:49.180Z,71.30
